Time;durP1;ratioP1;P1;durP2;ratioP2;P2;SDS_P1;SDS_P2;PMS_P1;PMS_P2;Temp;Humidity;BMP_temperature;BMP_pressure;BME280_temperature;BME280_humidity;BME280_pressure;Samples;Min_cycle;Max_cycle;Signal;HPM_P1;HPM_P2
2022/03/19 00:02:01;;;;;;;7.80;2.60;;;;;;;;;;5071572;28;20086;-87
2022/03/19 00:04:27;;;;;;;6.70;2.35;;;;;;;;;;5092329;28;20058;-84
2022/03/19 00:06:53;;;;;;;7.95;2.72;;;;;;;;;;5106486;28;20092;-86
2022/03/19 00:09:19;;;;;;;5.60;2.45;;;;;;;;;;5105138;28;20036;-88
2022/03/19 00:11:45;;;;;;;7.80;2.30;;;;;;;;;;5093921;28;20065;-87
2022/03/19 00:14:12;;;;;;;7.00;2.45;;;;;;;;;;5080579;28;20044;-87
2022/03/19 00:16:38;;;;;;;6.07;2.75;;;;;;;;;;5078142;28;20079;-86
2022/03/19 00:19:05;;;;;;;5.93;2.63;;;;;;;;;;5089985;28;20051;-88
2022/03/19 00:21:32;;;;;;;9.88;2.45;;;;;;;;;;5094252;28;20071;-86
2022/03/19 00:23:58;;;;;;;8.07;2.70;;;;;;;;;;5091039;28;20038;-88
2022/03/19 00:26:24;;;;;;;6.38;2.40;;;;;;;;;;5075209;28;20039;-88
2022/03/19 00:28:50;;;;;;;5.80;2.38;;;;;;;;;;5064702;28;20466;-89
2022/03/19 00:31:16;;;;;;;7.38;2.63;;;;;;;;;;5088163;28;20075;-90
2022/03/19 00:33:42;;;;;;;6.53;2.38;;;;;;;;;;5073749;28;20071;-90
2022/03/19 00:36:08;;;;;;;4.88;2.33;;;;;;;;;;5102348;28;20047;-90
2022/03/19 00:38:34;;;;;;;6.80;2.20;;;;;;;;;;5086008;28;20049;-91
2022/03/19 00:41:00;;;;;;;7.70;2.42;;;;;;;;;;5076364;28;20472;-90
2022/03/19 00:43:26;;;;;;;6.70;2.30;;;;;;;;;;5093741;28;20411;-90
2022/03/19 00:45:52;;;;;;;5.03;2.40;;;;;;;;;;5090663;28;20044;-89
2022/03/19 00:48:18;;;;;;;10.60;2.83;;;;;;;;;;5075264;28;20036;-89
2022/03/19 00:50:44;;;;;;;6.03;2.33;;;;;;;;;;5074588;28;20480;-90
2022/03/19 00:53:10;;;;;;;8.57;2.70;;;;;;;;;;5092364;28;20510;-90
2022/03/19 00:55:36;;;;;;;7.40;2.88;;;;;;;;;;5088793;28;20115;-91
2022/03/19 00:58:03;;;;;;;5.22;2.20;;;;;;;;;;5092727;28;20039;-90
2022/03/19 01:00:29;;;;;;;8.10;2.97;;;;;;;;;;5070405;28;20056;-90
2022/03/19 01:02:55;;;;;;;6.13;2.58;;;;;;;;;;5074118;28;20047;-89
2022/03/19 01:05:22;;;;;;;6.28;2.70;;;;;;;;;;5071148;28;20048;-89
2022/03/19 01:07:50;;;;;;;6.70;2.60;;;;;;;;;;5056082;28;20036;-91
2022/03/19 01:10:17;;;;;;;10.55;2.88;;;;;;;;;;5086271;28;20044;-91
2022/03/19 01:12:43;;;;;;;5.03;2.42;;;;;;;;;;5091940;28;20480;-91
2022/03/19 01:15:10;;;;;;;7.47;2.47;;;;;;;;;;5089445;28;20047;-92
2022/03/19 01:17:36;;;;;;;6.28;2.80;;;;;;;;;;5088409;28;20055;-91
2022/03/19 01:20:03;;;;;;;8.23;2.45;;;;;;;;;;5081945;28;20063;-90
2022/03/19 01:22:29;;;;;;;6.15;2.65;;;;;;;;;;5088111;28;20048;-92
2022/03/19 01:24:57;;;;;;;8.82;2.97;;;;;;;;;;5086712;28;20553;-91
2022/03/19 01:27:23;;;;;;;7.38;2.30;;;;;;;;;;5068430;28;20098;-91
2022/03/19 01:29:49;;;;;;;7.70;2.47;;;;;;;;;;5056713;28;20407;-91
2022/03/19 01:32:15;;;;;;;7.65;2.60;;;;;;;;;;5087324;28;20040;-91
2022/03/19 01:34:41;;;;;;;5.53;2.30;;;;;;;;;;5089679;28;20135;-90
2022/03/19 01:37:07;;;;;;;5.47;2.30;;;;;;;;;;5091715;28;20044;-91
2022/03/19 01:39:33;;;;;;;5.53;2.22;;;;;;;;;;5073913;28;20094;-91
2022/03/19 01:41:59;;;;;;;7.20;2.72;;;;;;;;;;5074458;28;20032;-91
2022/03/19 01:44:28;;;;;;;9.10;2.67;;;;;;;;;;5096681;28;20036;-90
2022/03/19 01:46:57;;;;;;;5.80;2.13;;;;;;;;;;5091114;28;20048;-88
2022/03/19 01:49:23;;;;;;;4.60;2.22;;;;;;;;;;5094357;28;20047;-90
2022/03/19 01:51:49;;;;;;;8.35;2.78;;;;;;;;;;5078087;28;20037;-89
2022/03/19 01:54:15;;;;;;;7.25;2.70;;;;;;;;;;5095934;28;20085;-89
2022/03/19 01:56:45;;;;;;;10.23;2.40;;;;;;;;;;5077672;28;20040;-89
2022/03/19 01:59:12;;;;;;;10.15;2.75;;;;;;;;;;5096979;28;20119;-91
2022/03/19 02:01:38;;;;;;;6.65;2.50;;;;;;;;;;5070935;28;20124;-92
2022/03/19 02:04:04;;;;;;;5.97;2.50;;;;;;;;;;5092428;28;20093;-90
2022/03/19 02:06:30;;;;;;;7.20;2.63;;;;;;;;;;5072203;28;20047;-91
2022/03/19 02:08:58;;;;;;;6.60;2.47;;;;;;;;;;5106083;28;20079;-91
2022/03/19 02:11:25;;;;;;;6.40;2.67;;;;;;;;;;5095267;28;20457;-93
2022/03/19 02:13:54;;;;;;;8.55;2.75;;;;;;;;;;5092213;28;20044;-91
2022/03/19 02:16:23;;;;;;;9.43;2.80;;;;;;;;;;5092673;28;20047;-92
2022/03/19 02:18:50;;;;;;;7.90;2.67;;;;;;;;;;5094416;28;20036;-91
2022/03/19 02:21:16;;;;;;;7.15;2.60;;;;;;;;;;5090933;28;20050;-93
2022/03/19 02:26:27;;;;;;;6.93;2.30;;;;;;;;;;5097980;28;20115;-90
2022/03/19 02:28:53;;;;;;;9.68;3.00;;;;;;;;;;5109719;28;20040;-89
2022/03/19 02:31:20;;;;;;;6.00;2.20;;;;;;;;;;5114303;28;20048;-91
2022/03/19 02:33:46;;;;;;;6.63;2.42;;;;;;;;;;5089122;28;20074;-90
2022/03/19 02:36:13;;;;;;;7.50;2.85;;;;;;;;;;5079596;28;20475;-90
2022/03/19 02:38:39;;;;;;;6.50;3.08;;;;;;;;;;5066236;28;20044;-90
2022/03/19 02:41:05;;;;;;;10.07;2.50;;;;;;;;;;5085678;28;20511;-91
2022/03/19 02:43:31;;;;;;;7.55;3.08;;;;;;;;;;5074960;28;20044;-90
2022/03/19 02:45:58;;;;;;;7.68;2.97;;;;;;;;;;5073069;28;20048;-91
2022/03/19 02:48:24;;;;;;;9.43;2.78;;;;;;;;;;5085721;28;20075;-91
2022/03/19 02:50:50;;;;;;;8.95;3.00;;;;;;;;;;5073856;28;20070;-91
2022/03/19 02:53:16;;;;;;;9.27;2.92;;;;;;;;;;5073416;28;20040;-90
2022/03/19 02:55:42;;;;;;;7.63;3.00;;;;;;;;;;5091345;28;20131;-91
2022/03/19 02:58:09;;;;;;;5.97;2.45;;;;;;;;;;5090949;28;20109;-90
2022/03/19 03:00:38;;;;;;;10.73;3.00;;;;;;;;;;5087505;28;20617;-91
2022/03/19 03:03:04;;;;;;;9.00;2.90;;;;;;;;;;5087128;28;20078;-90
2022/03/19 03:05:30;;;;;;;7.90;2.97;;;;;;;;;;5091555;28;20488;-90
2022/03/19 03:07:56;;;;;;;9.07;2.78;;;;;;;;;;5089829;28;20040;-91
2022/03/19 03:10:23;;;;;;;7.43;2.75;;;;;;;;;;5093393;28;20048;-91
2022/03/19 03:12:49;;;;;;;5.97;2.72;;;;;;;;;;5086855;28;20044;-90
2022/03/19 03:15:18;;;;;;;6.68;2.90;;;;;;;;;;5090732;28;20032;-91
2022/03/19 03:17:44;;;;;;;9.35;3.28;;;;;;;;;;5084395;28;20051;-91
2022/03/19 03:20:10;;;;;;;7.03;2.75;;;;;;;;;;5093262;28;20419;-90
2022/03/19 03:22:37;;;;;;;7.20;3.10;;;;;;;;;;5076033;28;20032;-92
2022/03/19 03:25:04;;;;;;;10.52;3.08;;;;;;;;;;5074375;28;20373;-91
2022/03/19 03:27:30;;;;;;;8.05;2.58;;;;;;;;;;5094795;28;20485;-90
2022/03/19 03:29:59;;;;;;;6.53;3.28;;;;;;;;;;5094123;28;20035;-87
2022/03/19 03:32:25;;;;;;;7.35;3.08;;;;;;;;;;5105242;28;20435;-92
2022/03/19 03:34:51;;;;;;;9.43;3.33;;;;;;;;;;5092168;28;20066;-88
2022/03/19 03:37:18;;;;;;;6.75;2.70;;;;;;;;;;5094767;28;20078;-90
2022/03/19 03:39:44;;;;;;;8.48;3.47;;;;;;;;;;5082086;28;20054;-90
2022/03/19 03:42:10;;;;;;;8.68;3.45;;;;;;;;;;5094335;28;20055;-90
2022/03/19 03:44:39;;;;;;;5.78;3.20;;;;;;;;;;5071901;28;20048;-90
2022/03/19 03:47:06;;;;;;;8.35;2.90;;;;;;;;;;5091250;28;20044;-89
2022/03/19 03:49:32;;;;;;;8.35;2.97;;;;;;;;;;5083470;28;20051;-95
2022/03/19 03:51:58;;;;;;;7.38;3.30;;;;;;;;;;5063141;28;20048;-90
2022/03/19 03:54:24;;;;;;;9.77;2.90;;;;;;;;;;5070175;28;20044;-91
2022/03/19 03:56:51;;;;;;;8.63;3.75;;;;;;;;;;5092236;28;20044;-90
2022/03/19 03:59:17;;;;;;;8.35;3.15;;;;;;;;;;5093860;28;20048;-87
2022/03/19 04:01:43;;;;;;;10.45;3.30;;;;;;;;;;5070301;28;20411;-90
2022/03/19 04:04:09;;;;;;;5.25;3.17;;;;;;;;;;5072038;28;20055;-90
2022/03/19 04:06:35;;;;;;;9.35;3.35;;;;;;;;;;5091502;28;20123;-90
2022/03/19 04:09:04;;;;;;;7.40;3.30;;;;;;;;;;5090391;28;20036;-90
2022/03/19 04:11:35;;;;;;;6.30;3.17;;;;;;;;;;5072556;28;20051;-91
2022/03/19 04:14:02;;;;;;;7.80;3.13;;;;;;;;;;5071790;28;20445;-91
2022/03/19 04:16:28;;;;;;;9.32;3.60;;;;;;;;;;5069255;28;20402;-90
2022/03/19 04:18:54;;;;;;;10.00;3.88;;;;;;;;;;5073327;28;20032;-89
2022/03/19 04:21:20;;;;;;;10.48;3.80;;;;;;;;;;5094055;28;20518;-91
2022/03/19 04:23:47;;;;;;;7.53;3.75;;;;;;;;;;5067149;28;21538;-91
2022/03/19 04:26:13;;;;;;;11.88;4.05;;;;;;;;;;5098652;28;20055;-90
2022/03/19 04:28:39;;;;;;;8.20;3.38;;;;;;;;;;5092046;28;20032;-91
2022/03/19 04:31:05;;;;;;;8.13;3.17;;;;;;;;;;5081093;28;20045;-92
2022/03/19 04:33:31;;;;;;;7.10;3.67;;;;;;;;;;5051938;28;20056;-85
2022/03/19 04:38:45;;;;;;;11.98;4.00;;;;;;;;;;5095927;28;20049;-92
2022/03/19 04:41:13;;;;;;;7.15;3.67;;;;;;;;;;5110151;28;20085;-91
2022/03/19 04:43:39;;;;;;;8.35;3.70;;;;;;;;;;5093425;28;20028;-90
2022/03/19 04:46:05;;;;;;;7.80;3.40;;;;;;;;;;5068458;28;20051;-91
2022/03/19 04:48:31;;;;;;;9.85;3.95;;;;;;;;;;5091008;28;20132;-91
2022/03/19 04:50:57;;;;;;;11.35;3.78;;;;;;;;;;5090823;28;20046;-91
2022/03/19 04:53:24;;;;;;;7.18;3.92;;;;;;;;;;5073100;28;20097;-92
2022/03/19 04:55:50;;;;;;;8.75;3.95;;;;;;;;;;5055545;28;20051;-91
2022/03/19 04:58:17;;;;;;;7.57;4.10;;;;;;;;;;5090129;28;20032;-91
2022/03/19 05:00:43;;;;;;;9.73;4.30;;;;;;;;;;5079365;28;20060;-91
2022/03/19 05:03:13;;;;;;;7.38;3.72;;;;;;;;;;5072079;28;20043;-92
2022/03/19 05:05:39;;;;;;;8.98;4.57;;;;;;;;;;5083359;28;20032;-93
2022/03/19 05:08:06;;;;;;;11.40;5.05;;;;;;;;;;5069021;28;20040;-93
2022/03/19 05:13:17;;;;;;;12.35;5.63;;;;;;;;;;5101881;28;20051;-93
2022/03/19 05:15:44;;;;;;;9.93;4.55;;;;;;;;;;5062437;28;20139;-93
2022/03/19 05:18:13;;;;;;;11.98;5.35;;;;;;;;;;5078698;28;20097;-94
2022/03/19 05:20:39;;;;;;;8.32;4.38;;;;;;;;;;5077669;28;20036;-92
2022/03/19 05:23:06;;;;;;;9.70;4.00;;;;;;;;;;5097577;28;20078;-91
2022/03/19 05:25:32;;;;;;;9.18;4.38;;;;;;;;;;5100183;28;20052;-94
2022/03/19 05:27:58;;;;;;;9.75;5.03;;;;;;;;;;5079549;28;20383;-93
2022/03/19 05:30:24;;;;;;;9.55;4.18;;;;;;;;;;5087443;28;20551;-93
2022/03/19 05:32:50;;;;;;;8.35;4.20;;;;;;;;;;5081440;28;20055;-93
2022/03/19 05:35:18;;;;;;;8.90;4.38;;;;;;;;;;5095862;28;20036;-93
2022/03/19 05:37:45;;;;;;;10.07;4.70;;;;;;;;;;5098411;28;20080;-92
2022/03/19 05:40:11;;;;;;;10.52;5.10;;;;;;;;;;5077482;28;20055;-92
2022/03/19 05:42:38;;;;;;;8.93;4.38;;;;;;;;;;5095704;28;20391;-92
2022/03/19 05:45:04;;;;;;;11.02;4.85;;;;;;;;;;5087119;28;20505;-91
2022/03/19 05:47:30;;;;;;;10.80;5.10;;;;;;;;;;5094274;28;20105;-92
2022/03/19 05:49:56;;;;;;;10.75;5.22;;;;;;;;;;5091863;28;20044;-92
2022/03/19 05:52:22;;;;;;;9.10;4.35;;;;;;;;;;5079087;28;20040;-92
2022/03/19 05:54:48;;;;;;;13.40;4.90;;;;;;;;;;5079194;28;20048;-92
2022/03/19 05:57:14;;;;;;;9.00;4.28;;;;;;;;;;5096218;28;20100;-93
2022/03/19 05:59:40;;;;;;;9.95;3.95;;;;;;;;;;5106896;28;20403;-92
2022/03/19 06:02:06;;;;;;;6.40;4.32;;;;;;;;;;5097022;28;20051;-90
2022/03/19 06:04:35;;;;;;;8.93;4.70;;;;;;;;;;5098062;28;20075;-90
2022/03/19 06:07:04;;;;;;;8.50;4.22;;;;;;;;;;5095990;28;20506;-91
2022/03/19 06:09:30;;;;;;;10.18;4.55;;;;;;;;;;5094584;28;20345;-92
2022/03/19 06:11:56;;;;;;;11.00;4.50;;;;;;;;;;5081919;28;20510;-92
2022/03/19 06:14:23;;;;;;;9.02;4.25;;;;;;;;;;5094974;28;20480;-92
2022/03/19 06:16:52;;;;;;;7.45;4.28;;;;;;;;;;5093018;28;20090;-92
2022/03/19 06:19:18;;;;;;;13.10;4.72;;;;;;;;;;5080833;28;20036;-91
2022/03/19 06:21:45;;;;;;;10.18;4.32;;;;;;;;;;5095506;28;20055;-91
2022/03/19 06:24:11;;;;;;;9.45;4.38;;;;;;;;;;5097210;28;20040;-91
2022/03/19 06:26:37;;;;;;;8.30;4.22;;;;;;;;;;5093947;28;20097;-92
2022/03/19 06:29:06;;;;;;;10.18;4.57;;;;;;;;;;5091106;28;20120;-92
2022/03/19 06:31:32;;;;;;;6.75;3.58;;;;;;;;;;5086851;28;20055;-90
2022/03/19 06:33:59;;;;;;;9.68;4.20;;;;;;;;;;5093617;28;20506;-92
2022/03/19 06:39:09;;;;;;;6.38;3.88;;;;;;;;;;5078376;28;20027;-91
2022/03/19 06:41:35;;;;;;;8.02;4.10;;;;;;;;;;5100563;28;20040;-91
2022/03/19 06:44:02;;;;;;;8.75;4.20;;;;;;;;;;5089343;28;20082;-91
2022/03/19 06:46:28;;;;;;;10.75;4.22;;;;;;;;;;5093928;28;20051;-85
2022/03/19 06:48:54;;;;;;;7.82;4.18;;;;;;;;;;5097018;28;20305;-92
2022/03/19 06:51:20;;;;;;;8.63;4.32;;;;;;;;;;5100846;28;20058;-89
2022/03/19 06:53:46;;;;;;;7.78;4.22;;;;;;;;;;5095800;28;20034;-89
2022/03/19 06:56:13;;;;;;;10.02;4.25;;;;;;;;;;5110528;28;20178;-91
2022/03/19 06:58:39;;;;;;;10.02;4.53;;;;;;;;;;5080511;28;20044;-91
2022/03/19 07:01:05;;;;;;;8.80;4.60;;;;;;;;;;5068176;28;20040;-91
2022/03/19 07:03:32;;;;;;;11.20;4.28;;;;;;;;;;5075498;28;20776;-88
2022/03/19 07:05:58;;;;;;;11.32;4.25;;;;;;;;;;5093600;28;20217;-92
2022/03/19 07:08:24;;;;;;;11.20;4.13;;;;;;;;;;5076388;28;20040;-91
2022/03/19 07:10:50;;;;;;;9.38;4.40;;;;;;;;;;5066887;28;20050;-92
2022/03/19 07:13:16;;;;;;;10.98;4.50;;;;;;;;;;5075587;28;20052;-90
2022/03/19 07:15:42;;;;;;;9.38;4.65;;;;;;;;;;5090630;28;20104;-90
2022/03/19 07:18:08;;;;;;;7.07;3.97;;;;;;;;;;5077071;28;20079;-91
2022/03/19 07:20:34;;;;;;;8.63;4.20;;;;;;;;;;5089144;28;20040;-91
2022/03/19 07:23:04;;;;;;;10.07;3.90;;;;;;;;;;5083860;28;20607;-91
2022/03/19 07:25:32;;;;;;;10.30;4.75;;;;;;;;;;5078653;28;20044;-85
2022/03/19 07:27:59;;;;;;;7.35;3.63;;;;;;;;;;5097879;28;20043;-91
2022/03/19 07:30:25;;;;;;;8.27;4.30;;;;;;;;;;5085093;28;20048;-93
2022/03/19 07:32:51;;;;;;;10.40;4.25;;;;;;;;;;5072540;28;20131;-93
2022/03/19 07:35:20;;;;;;;7.72;3.92;;;;;;;;;;5094905;28;20040;-92
2022/03/19 07:37:47;;;;;;;11.02;5.25;;;;;;;;;;5090201;28;20476;-91
2022/03/19 07:41:45;;;;;;;9.07;4.30;;;;;;;;;;5094038;28;20040;-91
2022/03/19 07:43:07;;;;;;;12.35;4.38;;;;;;;;;;5091461;28;20047;-92
2022/03/19 07:45:36;;;;;;;9.90;4.65;;;;;;;;;;5071647;28;20043;-91
2022/03/19 07:48:02;;;;;;;9.75;4.30;;;;;;;;;;5063908;28;20047;-91
2022/03/19 07:50:28;;;;;;;9.75;4.43;;;;;;;;;;5095772;28;20051;-90
2022/03/19 07:52:55;;;;;;;8.35;4.38;;;;;;;;;;5091266;28;20048;-94
2022/03/19 07:55:21;;;;;;;9.80;4.85;;;;;;;;;;5078489;28;20491;-92
2022/03/19 07:57:47;;;;;;;10.73;5.28;;;;;;;;;;5091979;28;20040;-92
2022/03/19 08:00:13;;;;;;;10.18;4.60;;;;;;;;;;5092328;28;20078;-92
2022/03/19 08:02:40;;;;;;;6.35;4.15;;;;;;;;;;5065613;28;20059;-91
2022/03/19 08:05:06;;;;;;;7.90;4.35;;;;;;;;;;5071957;28;20088;-91
2022/03/19 08:07:33;;;;;;;11.25;5.25;;;;;;;;;;5088920;28;20044;-91
2022/03/19 08:09:59;;;;;;;8.60;3.85;;;;;;;;;;5091243;28;20119;-91
2022/03/19 08:12:28;;;;;;;9.55;5.18;;;;;;;;;;5092675;28;20041;-87
2022/03/19 08:14:55;;;;;;;7.80;4.57;;;;;;;;;;5067328;28;20040;-90
2022/03/19 08:17:21;;;;;;;8.93;4.00;;;;;;;;;;5078065;28;20052;-91
2022/03/19 08:19:48;;;;;;;8.23;4.30;;;;;;;;;;5068006;28;20097;-91
2022/03/19 08:22:14;;;;;;;10.50;4.80;;;;;;;;;;5093252;28;20040;-91
2022/03/19 08:24:40;;;;;;;10.25;5.25;;;;;;;;;;5092861;28;20071;-90
2022/03/19 08:27:06;;;;;;;10.93;5.03;;;;;;;;;;5065441;28;20068;-91
2022/03/19 08:29:32;;;;;;;6.63;4.22;;;;;;;;;;5088445;28;20400;-89
2022/03/19 08:31:58;;;;;;;6.65;3.80;;;;;;;;;;5093381;28;20040;-90
2022/03/19 08:34:25;;;;;;;10.23;5.15;;;;;;;;;;5085576;28;20079;-90
2022/03/19 08:36:52;;;;;;;8.70;4.72;;;;;;;;;;5081866;28;20052;-88
2022/03/19 08:42:03;;;;;;;9.35;4.88;;;;;;;;;;5081314;28;20044;-88
2022/03/19 08:44:29;;;;;;;8.27;4.70;;;;;;;;;;5090093;28;20051;-87
2022/03/19 08:46:55;;;;;;;8.00;4.57;;;;;;;;;;5088866;28;20067;-88
2022/03/19 08:49:27;;;;;;;10.48;5.63;;;;;;;;;;5071315;28;20071;-93
2022/03/19 08:51:59;;;;;;;10.48;4.80;;;;;;;;;;5084279;28;20101;-89
2022/03/19 08:54:50;;;;;;;5.07;3.53;;;;;;;;;;5071928;28;20134;-89
2022/03/19 08:57:19;;;;;;;12.70;5.60;;;;;;;;;;5067156;28;20044;-85
2022/03/19 08:59:59;;;;;;;10.73;5.07;;;;;;;;;;5087260;28;20097;-91
2022/03/19 09:02:25;;;;;;;7.40;5.13;;;;;;;;;;5070951;28;20083;-88
2022/03/19 09:04:51;;;;;;;6.65;5.00;;;;;;;;;;5066126;28;20548;-83
2022/03/19 09:07:18;;;;;;;11.38;5.60;;;;;;;;;;5079795;28;20045;-77
2022/03/19 09:09:44;;;;;;;10.98;4.90;;;;;;;;;;5089452;28;20044;-87
2022/03/19 09:12:13;;;;;;;10.25;4.85;;;;;;;;;;5090442;28;20044;-78
2022/03/19 09:14:40;;;;;;;6.93;4.35;;;;;;;;;;5088694;28;20032;-83
2022/03/19 09:17:06;;;;;;;7.82;4.50;;;;;;;;;;5087979;28;20075;-92
2022/03/19 09:19:32;;;;;;;6.32;4.00;;;;;;;;;;5089174;28;20512;-70
2022/03/19 09:21:59;;;;;;;9.95;4.15;;;;;;;;;;5086786;28;20123;-86
2022/03/19 09:24:28;;;;;;;8.75;4.20;;;;;;;;;;5089351;28;20141;-86
2022/03/19 09:26:58;;;;;;;9.18;4.00;;;;;;;;;;5086879;28;20143;-83
2022/03/19 09:29:24;;;;;;;7.45;4.15;;;;;;;;;;5062055;28;20126;-84
2022/03/19 09:31:56;;;;;;;8.32;3.72;;;;;;;;;;5083039;28;20044;-85
2022/03/19 09:34:25;;;;;;;7.68;4.20;;;;;;;;;;5082112;28;20052;-86
2022/03/19 09:36:57;;;;;;;10.18;4.25;;;;;;;;;;5065050;28;20040;-90
2022/03/19 09:39:24;;;;;;;6.78;3.75;;;;;;;;;;5085236;28;20042;-82
2022/03/19 09:42:01;;;;;;;8.98;4.90;;;;;;;;;;5076220;28;20041;-92
2022/03/19 09:44:31;;;;;;;7.30;3.88;;;;;;;;;;5082742;28;20048;-87
2022/03/19 09:46:57;;;;;;;8.57;3.38;;;;;;;;;;5086794;28;20044;-90
2022/03/19 09:49:23;;;;;;;8.77;3.38;;;;;;;;;;5083134;28;20131;-86
2022/03/19 09:51:53;;;;;;;9.63;3.20;;;;;;;;;;5090766;28;20192;-86
2022/03/19 09:54:19;;;;;;;8.05;3.47;;;;;;;;;;5075610;28;20448;-88
2022/03/19 09:56:46;;;;;;;8.30;3.42;;;;;;;;;;5070886;28;20078;-87
2022/03/19 09:59:15;;;;;;;6.10;3.10;;;;;;;;;;5088405;28;20044;-88
2022/03/19 10:01:41;;;;;;;6.82;3.60;;;;;;;;;;5069818;28;20060;-79
2022/03/19 10:04:08;;;;;;;7.07;3.10;;;;;;;;;;5091229;28;20067;-88
2022/03/19 10:09:20;;;;;;;7.30;2.97;;;;;;;;;;5078347;28;20048;-82
2022/03/19 10:11:50;;;;;;;6.10;3.20;;;;;;;;;;5085037;28;20388;-78
2022/03/19 10:14:24;;;;;;;9.18;3.72;;;;;;;;;;5086099;28;20036;-80
2022/03/19 10:16:51;;;;;;;6.72;2.97;;;;;;;;;;5091284;28;20513;-87
2022/03/19 10:19:17;;;;;;;7.32;2.80;;;;;;;;;;5070210;28;20032;-82
2022/03/19 10:21:45;;;;;;;7.32;3.05;;;;;;;;;;5082617;28;20043;-87
2022/03/19 10:24:29;;;;;;;3.40;2.60;;;;;;;;;;5074129;28;20051;-84
2022/03/19 10:26:55;;;;;;;6.72;2.50;;;;;;;;;;5082866;28;20373;-84
2022/03/19 10:29:30;;;;;;;5.18;2.65;;;;;;;;;;5077648;28;20457;-84
2022/03/19 10:32:07;;;;;;;7.30;3.15;;;;;;;;;;5091178;28;20048;-84
2022/03/19 10:34:40;;;;;;;4.93;2.58;;;;;;;;;;5092684;28;20036;-85
2022/03/19 10:37:06;;;;;;;5.28;2.47;;;;;;;;;;5088276;28;20044;-76
2022/03/19 10:39:32;;;;;;;4.45;2.85;;;;;;;;;;5092684;28;20051;-84
2022/03/19 10:41:58;;;;;;;4.22;2.78;;;;;;;;;;5071880;28;20048;-84
2022/03/19 10:44:26;;;;;;;4.10;2.58;;;;;;;;;;5092042;28;20081;-84
2022/03/19 10:46:57;;;;;;;6.30;2.53;;;;;;;;;;5073218;28;20135;-85
2022/03/19 10:49:25;;;;;;;6.15;3.00;;;;;;;;;;5092929;28;20066;-84
2022/03/19 10:51:52;;;;;;;6.70;3.03;;;;;;;;;;5073181;28;20040;-85
2022/03/19 10:54:18;;;;;;;5.63;3.08;;;;;;;;;;5093849;28;20036;-83
2022/03/19 10:56:45;;;;;;;11.90;3.28;;;;;;;;;;5089515;28;20372;-84
2022/03/19 10:59:11;;;;;;;7.32;3.13;;;;;;;;;;5088493;28;20040;-83
2022/03/19 11:01:38;;;;;;;5.65;2.47;;;;;;;;;;5091417;28;20055;-82
2022/03/19 11:04:05;;;;;;;4.30;2.35;;;;;;;;;;5086873;28;20056;-83
2022/03/19 11:06:37;;;;;;;6.05;2.60;;;;;;;;;;5070970;28;20048;-80
2022/03/19 11:09:06;;;;;;;3.67;2.30;;;;;;;;;;5067917;28;20075;-83
2022/03/19 11:11:39;;;;;;;4.47;2.60;;;;;;;;;;5067510;28;20380;-86
2022/03/19 11:14:06;;;;;;;6.53;2.77;;;;;;;;;;5069135;28;20068;-76
2022/03/19 11:16:36;;;;;;;5.90;2.47;;;;;;;;;;5085175;28;20391;-83
2022/03/19 11:19:03;;;;;;;4.97;2.45;;;;;;;;;;5082727;28;20044;-84
2022/03/19 11:21:31;;;;;;;3.65;2.50;;;;;;;;;;5079032;28;20036;-84
2022/03/19 11:24:23;;;;;;;5.55;2.60;;;;;;;;;;5087903;28;20518;-83
2022/03/19 11:26:50;;;;;;;4.88;2.40;;;;;;;;;;5073417;28;20492;-84
2022/03/19 11:29:16;;;;;;;5.72;2.30;;;;;;;;;;5092277;28;20119;-83
2022/03/19 11:31:52;;;;;;;2.88;2.15;;;;;;;;;;5089101;28;20052;-84
2022/03/19 11:34:19;;;;;;;4.82;2.50;;;;;;;;;;5068750;28;20040;-83
2022/03/19 11:36:54;;;;;;;5.35;2.30;;;;;;;;;;5086933;28;20531;-83
2022/03/19 11:39:20;;;;;;;3.92;2.13;;;;;;;;;;5062038;28;20036;-83
2022/03/19 11:41:51;;;;;;;3.65;2.35;;;;;;;;;;5074801;28;20373;-82
2022/03/19 11:44:23;;;;;;;4.35;2.13;;;;;;;;;;5076707;28;20110;-82
2022/03/19 11:46:59;;;;;;;3.97;2.05;;;;;;;;;;5085613;28;20044;-82
2022/03/19 11:49:44;;;;;;;3.72;2.03;;;;;;;;;;5071131;28;20123;-82
2022/03/19 11:52:10;;;;;;;11.45;7.60;;;;;;;;;;5091441;28;20062;-82
2022/03/19 11:54:58;;;;;;;4.00;2.58;;;;;;;;;;5089419;28;20039;-82
2022/03/19 11:57:26;;;;;;;4.20;2.17;;;;;;;;;;5083135;28;20036;-83
2022/03/19 11:59:55;;;;;;;7.57;2.00;;;;;;;;;;5087082;28;20084;-83
2022/03/19 12:02:21;;;;;;;4.43;2.28;;;;;;;;;;5075330;28;20135;-83
2022/03/19 12:04:48;;;;;;;5.72;2.25;;;;;;;;;;5087274;28;20432;-85
2022/03/19 12:07:33;;;;;;;4.25;2.45;;;;;;;;;;5094595;28;20044;-87
2022/03/19 12:10:00;;;;;;;3.30;2.03;;;;;;;;;;5075962;28;20496;-87
2022/03/19 12:12:27;;;;;;;5.78;2.60;;;;;;;;;;5081457;28;20546;-87
2022/03/19 12:14:56;;;;;;;3.38;2.17;;;;;;;;;;5057714;28;20048;-87
2022/03/19 12:17:23;;;;;;;3.20;2.17;;;;;;;;;;5074667;28;20043;-86
2022/03/19 12:19:59;;;;;;;3.03;1.90;;;;;;;;;;5086239;28;20071;-88
2022/03/19 12:22:45;;;;;;;3.08;2.15;;;;;;;;;;5100816;28;20044;-87
2022/03/19 12:25:18;;;;;;;4.45;2.00;;;;;;;;;;5085671;28;20481;-87
2022/03/19 12:27:51;;;;;;;2.30;1.80;;;;;;;;;;5054291;28;20079;-88
2022/03/19 12:30:18;;;;;;;2.40;2.05;;;;;;;;;;5053960;28;20123;-87
2022/03/19 12:32:54;;;;;;;2.75;2.00;;;;;;;;;;5071232;28;20048;-88
2022/03/19 12:35:41;;;;;;;3.30;2.00;;;;;;;;;;5072604;28;20062;-89
2022/03/19 12:38:08;;;;;;;1.85;1.65;;;;;;;;;;5058429;28;20049;-87
2022/03/19 12:43:20;;;;;;;2.97;1.95;;;;;;;;;;5092219;28;20075;-91
2022/03/19 12:45:47;;;;;;;4.43;2.05;;;;;;;;;;5084538;28;20045;-87
2022/03/19 12:48:20;;;;;;;2.38;1.60;;;;;;;;;;5091431;28;20082;-86
2022/03/19 12:50:56;;;;;;;2.65;1.63;;;;;;;;;;5068584;28;20174;-88
2022/03/19 12:53:35;;;;;;;4.15;2.00;;;;;;;;;;5072624;28;20073;-88
2022/03/19 12:56:14;;;;;;;2.10;1.80;;;;;;;;;;5077662;28;20123;-86
2022/03/19 12:58:43;;;;;;;3.05;2.20;;;;;;;;;;5079063;28;20515;-86
2022/03/19 13:01:11;;;;;;;5.20;2.20;;;;;;;;;;5084129;28;20446;-89
2022/03/19 13:03:37;;;;;;;6.38;2.75;;;;;;;;;;5073398;28;20051;-89
2022/03/19 13:06:03;;;;;;;5.82;2.85;;;;;;;;;;5073428;28;20032;-88
2022/03/19 13:08:29;;;;;;;7.38;3.08;;;;;;;;;;5081710;28;20398;-88
2022/03/19 13:10:55;;;;;;;4.97;2.38;;;;;;;;;;5052912;28;20050;-87
2022/03/19 13:13:21;;;;;;;6.20;2.78;;;;;;;;;;5058220;28;20048;-87
2022/03/19 13:15:51;;;;;;;4.30;2.65;;;;;;;;;;5054041;28;20064;-88
2022/03/19 13:18:27;;;;;;;4.35;2.65;;;;;;;;;;5088328;28;20115;-90
2022/03/19 13:21:04;;;;;;;4.47;2.58;;;;;;;;;;5066742;28;20048;-90
2022/03/19 13:23:31;;;;;;;6.28;2.38;;;;;;;;;;5084867;28;20101;-89
2022/03/19 13:25:58;;;;;;;7.10;3.00;;;;;;;;;;5073943;28;20078;-90
2022/03/19 13:28:24;;;;;;;6.40;3.03;;;;;;;;;;5081828;28;20441;-89
2022/03/19 13:30:50;;;;;;;6.40;3.17;;;;;;;;;;5072279;28;20098;-90
2022/03/19 13:33:17;;;;;;;4.78;2.58;;;;;;;;;;5085253;28;20101;-90
2022/03/19 13:35:47;;;;;;;6.18;2.90;;;;;;;;;;5093509;28;20075;-91
2022/03/19 13:38:14;;;;;;;4.78;2.70;;;;;;;;;;5114363;28;20126;-90
2022/03/19 13:40:40;;;;;;;5.18;2.80;;;;;;;;;;5108486;28;20504;-89
2022/03/19 13:43:06;;;;;;;6.63;2.60;;;;;;;;;;5105006;28;20051;-88
2022/03/19 13:45:33;;;;;;;4.22;2.40;;;;;;;;;;5099705;28;20040;-88
2022/03/19 13:48:08;;;;;;;6.28;2.80;;;;;;;;;;5098182;28;20032;-89
2022/03/19 13:50:36;;;;;;;6.35;2.67;;;;;;;;;;5080788;28;20047;-88
2022/03/19 13:53:03;;;;;;;6.00;2.72;;;;;;;;;;5109710;28;20083;-87
2022/03/19 13:55:29;;;;;;;4.32;2.58;;;;;;;;;;5091791;28;20400;-87
2022/03/19 13:57:56;;;;;;;6.93;2.70;;;;;;;;;;5091605;28;20036;-88
2022/03/19 14:00:26;;;;;;;5.03;2.60;;;;;;;;;;5091601;28;20155;-89
2022/03/19 14:02:56;;;;;;;4.15;2.50;;;;;;;;;;5074995;28;20708;-90
2022/03/19 14:05:24;;;;;;;4.43;2.67;;;;;;;;;;5089158;28;20039;-90
2022/03/19 14:07:51;;;;;;;5.10;2.20;;;;;;;;;;5095108;28;20044;-90
2022/03/19 14:10:17;;;;;;;4.55;2.50;;;;;;;;;;5092490;28;20040;-90
2022/03/19 14:12:46;;;;;;;5.53;2.10;;;;;;;;;;5084365;28;20092;-90
2022/03/19 14:15:16;;;;;;;4.70;2.33;;;;;;;;;;5072266;28;20560;-90
2022/03/19 14:17:58;;;;;;;4.60;2.55;;;;;;;;;;5088648;28;20169;-90
2022/03/19 14:20:24;;;;;;;5.45;2.38;;;;;;;;;;5076860;28;20411;-90
2022/03/19 14:22:51;;;;;;;3.97;2.47;;;;;;;;;;5094932;28;20043;-90
2022/03/19 14:25:18;;;;;;;5.88;2.70;;;;;;;;;;5095775;28;20044;-90
2022/03/19 14:27:44;;;;;;;4.68;2.40;;;;;;;;;;5078378;28;20048;-89
2022/03/19 14:30:12;;;;;;;3.60;2.10;;;;;;;;;;5067622;28;20060;-90
2022/03/19 14:32:39;;;;;;;4.90;2.35;;;;;;;;;;5066059;28;20052;-91
2022/03/19 14:35:05;;;;;;;4.90;2.60;;;;;;;;;;5089760;28;20115;-87
2022/03/19 14:37:31;;;;;;;4.22;2.55;;;;;;;;;;5068730;28;20104;-90
2022/03/19 14:40:00;;;;;;;4.50;2.47;;;;;;;;;;5063138;28;20052;-91
2022/03/19 14:42:26;;;;;;;4.72;2.47;;;;;;;;;;5072789;28;20049;-90
2022/03/19 14:44:57;;;;;;;5.22;2.45;;;;;;;;;;5074636;28;20055;-91
2022/03/19 14:47:23;;;;;;;6.40;2.78;;;;;;;;;;5055982;28;20466;-91
2022/03/19 14:49:49;;;;;;;4.25;2.42;;;;;;;;;;5058608;28;20043;-92
2022/03/19 14:52:15;;;;;;;3.90;2.53;;;;;;;;;;5095209;28;20071;-89
2022/03/19 14:54:41;;;;;;;4.20;2.60;;;;;;;;;;5073508;28;20048;-89
2022/03/19 14:57:07;;;;;;;5.53;2.55;;;;;;;;;;5074757;28;20127;-91
2022/03/19 14:59:33;;;;;;;4.60;2.58;;;;;;;;;;5074503;28;20044;-89
2022/03/19 15:01:59;;;;;;;4.13;2.60;;;;;;;;;;5081538;28;20056;-90
2022/03/19 15:04:25;;;;;;;4.72;2.60;;;;;;;;;;5094767;28;20137;-91